Time;durP1;ratioP1;P1;durP2;ratioP2;P2;SDS_P1;SDS_P2;PMS_P1;PMS_P2;Temp;Humidity;BMP_temperature;BMP_pressure;BME280_temperature;BME280_humidity;BME280_pressure;Samples;Min_cycle;Max_cycle;Signal;HPM_P1;HPM_P2
2022/07/11 00:24:26;;;;;;;8.63;3.72;;;;;;;12.97;100.00;101771.28;5065670;28;20445;-78
2022/07/11 00:26:52;;;;;;;11.95;4.35;;;;;;;13.00;100.00;101764.72;5045809;28;20466;-78
2022/07/11 00:29:18;;;;;;;7.95;3.83;;;;;;;13.01;100.00;101770.97;5037540;28;20498;-77
2022/07/11 00:31:44;;;;;;;7.35;4.28;;;;;;;12.95;100.00;101769.78;5030701;28;20126;-76
2022/07/11 00:34:37;;;;;;;6.82;3.95;;;;;;;12.88;100.00;101771.44;5064441;28;20401;-78
2022/07/11 01:02:49;;;;;;;5.07;2.90;;;;;;;12.42;100.00;101760.22;5066294;28;20083;-77
2022/07/11 01:05:15;;;;;;;5.03;3.10;;;;;;;12.25;100.00;101743.09;5057998;28;20028;-77
2022/07/11 01:07:40;;;;;;;7.15;3.47;;;;;;;12.20;100.00;101753.53;5063402;28;20056;-76
2022/07/11 01:10:06;;;;;;;4.68;3.13;;;;;;;12.09;100.00;101751.97;5061031;28;20089;-79
2022/07/11 01:13:30;;;;;;;5.38;3.20;;;;;;;12.06;100.00;101757.69;5020568;28;20029;-77
2022/07/11 02:14:13;;;;;;;5.68;3.80;;;;;;;11.11;100.00;101727.06;5070320;28;20422;-77
2022/07/11 02:16:42;;;;;;;7.80;3.20;;;;;;;11.07;100.00;101725.69;5044132;28;20493;-78
2022/07/11 02:19:10;;;;;;;9.70;3.70;;;;;;;10.98;100.00;101725.63;5069358;28;20033;-78
2022/07/11 02:21:36;;;;;;;5.25;3.30;;;;;;;10.85;100.00;101709.03;5046170;28;20465;-77
2022/07/11 02:24:02;;;;;;;5.78;4.00;;;;;;;10.83;100.00;101719.09;5067952;28;20040;-77
2022/07/11 02:26:28;;;;;;;6.28;3.42;;;;;;;10.73;100.00;101708.41;5045787;28;20045;-77
2022/07/11 02:28:54;;;;;;;6.07;3.60;;;;;;;10.71;100.00;101712.25;5059804;28;20024;-78
2022/07/11 02:31:20;;;;;;;7.38;3.80;;;;;;;10.63;100.00;101696.03;5076732;28;20457;-78
2022/07/11 02:33:46;;;;;;;6.35;2.90;;;;;;;10.71;100.00;101709.56;5069487;28;20035;-79
2022/07/11 02:36:11;;;;;;;8.65;3.50;;;;;;;10.79;100.00;101710.47;5049464;28;20028;-77
2022/07/11 02:38:37;;;;;;;9.65;3.92;;;;;;;10.81;100.00;101704.94;5058380;28;20497;-77
2022/07/11 02:41:03;;;;;;;7.10;4.05;;;;;;;10.72;100.00;101701.34;5044429;28;20036;-78
2022/07/11 02:54:02;;;;;;;7.50;3.67;;;;;;;10.30;100.00;101656.22;4971903;28;20162;-77
2022/07/11 02:56:28;;;;;;;5.70;3.30;;;;;;;10.28;100.00;101650.16;5054250;28;20159;-78
2022/07/11 02:58:53;;;;;;;6.28;3.55;;;;;;;10.46;100.00;101678.91;5031056;28;20039;-76
2022/07/11 03:01:19;;;;;;;4.93;3.15;;;;;;;10.55;100.00;101691.41;5069948;28;20111;-77
2022/07/11 03:03:45;;;;;;;5.63;3.70;;;;;;;10.60;100.00;101688.28;5048532;28;20029;-77
2022/07/11 03:06:11;;;;;;;5.95;3.05;;;;;;;10.64;100.00;101687.81;5049891;28;20032;-78
2022/07/11 03:08:37;;;;;;;5.82;3.50;;;;;;;10.59;100.00;101684.75;5068788;28;20055;-77
2022/07/11 03:11:03;;;;;;;7.18;3.40;;;;;;;10.66;100.00;101684.97;5052348;28;20029;-78
2022/07/11 03:13:29;;;;;;;4.88;3.15;;;;;;;10.57;100.00;101667.91;5048348;28;20047;-77
2022/07/11 03:15:54;;;;;;;5.82;3.38;;;;;;;10.53;100.00;101666.50;5068075;28;20119;-77
2022/07/11 03:18:20;;;;;;;8.27;3.67;;;;;;;10.38;100.00;101657.31;5027940;28;20239;-77
2022/07/11 03:20:46;;;;;;;8.43;3.63;;;;;;;10.42;100.00;101674.81;5071870;28;20020;-77
2022/07/11 03:23:11;;;;;;;5.70;3.60;;;;;;;10.31;100.00;101665.97;5051817;28;20389;-76
2022/07/11 03:25:37;;;;;;;5.65;3.95;;;;;;;10.25;100.00;101660.34;5032009;28;20037;-78
2022/07/11 03:28:04;;;;;;;5.80;3.28;;;;;;;10.26;100.00;101654.78;5027901;28;20040;-80
2022/07/11 03:30:29;;;;;;;7.03;3.95;;;;;;;10.25;100.00;101647.72;5069413;28;20109;-77
2022/07/11 03:32:55;;;;;;;8.13;3.50;;;;;;;10.32;100.00;101653.41;5061873;28;20470;-79
2022/07/11 03:38:05;;;;;;;6.70;3.20;;;;;;;10.20;100.00;101647.34;5051804;28;20040;-77
2022/07/11 03:40:33;;;;;;;7.65;3.58;;;;;;;10.21;100.00;101645.50;5047964;28;20029;-79
2022/07/11 03:42:59;;;;;;;6.20;3.30;;;;;;;10.19;100.00;101644.78;5037766;28;20041;-78
2022/07/11 03:45:25;;;;;;;6.13;3.60;;;;;;;10.18;100.00;101637.72;5068221;28;20039;-77
2022/07/11 03:47:50;;;;;;;4.90;3.10;;;;;;;10.11;100.00;101621.38;5064405;28;20031;-78
2022/07/11 03:50:16;;;;;;;4.03;3.15;;;;;;;10.24;100.00;101642.50;5067973;28;20104;-78
2022/07/11 03:52:42;;;;;;;6.85;3.47;;;;;;;10.24;100.00;101638.00;5073762;28;20036;-78
2022/07/11 03:55:08;;;;;;;5.60;3.65;;;;;;;10.25;100.00;101644.22;5064762;28;20055;-79
2022/07/11 03:57:34;;;;;;;8.48;3.63;;;;;;;10.25;100.00;101641.50;5062911;28;20094;-77
2022/07/11 04:00:02;;;;;;;7.32;3.78;;;;;;;10.25;100.00;101644.22;5047570;28;20049;-76
2022/07/11 04:02:28;;;;;;;8.25;3.97;;;;;;;10.23;100.00;101646.19;5045417;28;20393;-76
2022/07/11 04:04:53;;;;;;;5.68;3.45;;;;;;;10.28;100.00;101646.63;5039706;28;20126;-76
2022/07/11 04:07:20;;;;;;;7.65;3.58;;;;;;;10.34;100.00;101654.06;5053749;28;20037;-76
2022/07/11 04:09:46;;;;;;;6.05;3.63;;;;;;;10.33;100.00;101647.00;5056697;28;20085;-79
2022/07/11 04:12:12;;;;;;;8.18;3.83;;;;;;;10.22;100.00;101631.06;5031529;28;20037;-77
2022/07/11 04:14:37;;;;;;;6.45;3.50;;;;;;;10.34;100.00;101651.38;5057988;28;20040;-77
2022/07/11 04:17:03;;;;;;;8.43;4.43;;;;;;;10.38;100.00;101652.78;5055198;28;20040;-76
2022/07/11 04:19:29;;;;;;;5.70;3.85;;;;;;;10.45;100.00;101653.84;5060072;28;20032;-76
2022/07/11 04:21:56;;;;;;;7.93;4.00;;;;;;;10.42;100.00;101653.31;5048563;28;20063;-78
2022/07/11 04:24:22;;;;;;;5.90;4.00;;;;;;;10.37;100.00;101645.69;5057677;28;20474;-78
2022/07/11 04:26:47;;;;;;;6.50;3.92;;;;;;;10.42;100.00;101654.13;5029305;28;20035;-77
2022/07/11 04:29:13;;;;;;;5.40;3.97;;;;;;;10.42;100.00;101646.06;5059028;28;20037;-79
2022/07/11 04:31:42;;;;;;;9.65;4.35;;;;;;;10.37;100.00;101639.47;5061536;28;20398;-77
2022/07/11 04:34:09;;;;;;;7.30;3.90;;;;;;;10.38;100.00;101647.41;5060663;28;20525;-78
2022/07/11 04:36:34;;;;;;;7.25;3.90;;;;;;;10.46;100.00;101641.25;5070286;28;20032;-76
2022/07/11 04:39:00;;;;;;;8.40;4.07;;;;;;;10.48;100.00;101634.72;5042907;28;20044;-79
2022/07/11 04:41:26;;;;;;;6.90;4.35;;;;;;;10.46;100.00;101634.03;5046086;28;20531;-79
2022/07/11 04:43:51;;;;;;;8.68;4.57;;;;;;;10.57;100.00;101647.22;5065628;28;20032;-78
2022/07/11 04:46:17;;;;;;;5.80;3.65;;;;;;;10.54;100.00;101625.19;5066511;28;20024;-77
2022/07/11 04:48:43;;;;;;;6.88;4.38;;;;;;;10.69;100.00;101639.78;5056829;28;20037;-77
2022/07/11 04:51:08;;;;;;;7.10;4.05;;;;;;;10.73;100.00;101640.31;5060134;28;20056;-79
2022/07/11 04:53:34;;;;;;;9.32;4.53;;;;;;;10.74;100.00;101648.25;5049093;28;20087;-79
2022/07/11 04:56:00;;;;;;;6.57;3.83;;;;;;;10.76;100.00;101643.53;5052901;28;20049;-76
2022/07/11 04:58:26;;;;;;;9.57;4.20;;;;;;;10.77;100.00;101636.34;5045110;28;20040;-77
2022/07/11 05:00:52;;;;;;;7.63;4.32;;;;;;;10.74;100.00;101629.41;5040376;28;20687;-76
2022/07/11 05:03:19;;;;;;;8.73;4.38;;;;;;;10.79;100.00;101634.31;5066757;28;20031;-77
2022/07/11 05:05:45;;;;;;;6.55;4.13;;;;;;;10.70;100.00;101621.81;5032033;28;20040;-76
2022/07/11 05:08:11;;;;;;;6.43;4.10;;;;;;;10.71;100.00;101624.31;5063725;28;20078;-78
2022/07/11 05:10:37;;;;;;;6.93;3.97;;;;;;;10.78;100.00;101628.09;5047265;28;20029;-78
2022/07/11 05:13:03;;;;;;;6.18;3.75;;;;;;;10.80;100.00;101625.25;5048028;28;20181;-76
2022/07/11 05:15:29;;;;;;;7.80;4.25;;;;;;;10.78;100.00;101630.78;5049227;28;20029;-77
2022/07/11 05:17:54;;;;;;;5.68;3.90;;;;;;;10.79;100.00;101623.53;5068175;28;20029;-76
2022/07/11 05:20:20;;;;;;;8.10;4.00;;;;;;;10.84;100.00;101618.53;5055643;28;20033;-77
2022/07/11 05:22:46;;;;;;;8.27;4.53;;;;;;;10.83;100.00;101605.25;5068325;28;20032;-76
2022/07/11 05:25:12;;;;;;;9.13;4.20;;;;;;;10.96;100.00;101630.75;5047542;28;20025;-76
2022/07/11 05:27:37;;;;;;;6.88;4.10;;;;;;;11.00;100.00;101631.28;5050053;28;20033;-78
2022/07/11 05:30:04;;;;;;;7.85;4.45;;;;;;;11.00;100.00;101631.28;5031764;28;20052;-77
2022/07/11 05:32:29;;;;;;;7.65;3.90;;;;;;;11.06;100.00;101633.34;5067918;28;20085;-76
2022/07/11 05:34:58;;;;;;;6.45;4.13;;;;;;;11.03;100.00;101622.88;5060378;28;20435;-77
2022/07/11 05:37:24;;;;;;;7.97;5.10;;;;;;;11.03;100.00;101620.19;5055757;28;20020;-78
2022/07/11 05:39:50;;;;;;;6.03;4.00;;;;;;;11.16;100.00;101633.22;5065518;28;20538;-78
2022/07/11 05:42:16;;;;;;;5.93;4.10;;;;;;;11.29;100.00;101628.25;5046741;28;20658;-77
2022/07/11 05:48:23;;;;;;;5.53;3.90;;;;;;;11.75;100.00;101638.75;5065837;28;20051;-77
2022/07/11 05:50:49;;;;;;;6.40;3.97;;;;;;;11.76;100.00;101606.28;5070234;28;20476;-77
2022/07/11 05:53:14;;;;;;;7.43;4.47;;;;;;;12.00;100.00;101623.56;5025931;28;20094;-79
2022/07/11 05:55:40;;;;;;;8.65;5.00;;;;;;;12.22;100.00;101620.25;5053564;28;20025;-76
2022/07/11 05:58:06;;;;;;;11.38;4.80;;;;;;;12.68;100.00;101626.03;5029162;28;20461;-77
2022/07/11 06:00:32;;;;;;;8.50;4.88;;;;;;;13.25;100.00;101621.59;5034000;28;20028;-79
2022/07/11 06:02:57;;;;;;;7.80;4.00;;;;;;;13.66;100.00;101626.91;5066722;28;20032;-77
2022/07/11 06:05:23;;;;;;;7.28;3.67;;;;;;;14.15;100.00;101616.69;5064343;28;20037;-78
2022/07/11 06:10:33;;;;;;;5.05;3.60;;;;;;;15.09;100.00;101611.06;5067361;28;20066;-77
2022/07/11 06:12:59;;;;;;;5.45;3.55;;;;;;;15.17;100.00;101609.09;5065904;28;20068;-78
2022/07/11 06:15:25;;;;;;;5.53;3.60;;;;;;;15.19;100.00;101622.47;5035977;28;20036;-76
2022/07/11 06:17:50;;;;;;;4.97;3.22;;;;;;;15.29;100.00;101616.78;5062512;28;20036;-77
2022/07/11 06:20:26;;;;;;;5.82;3.50;;;;;;;15.59;100.00;101599.50;5059613;28;20445;-76
2022/07/11 06:23:37;;;;;;;4.55;3.40;;;;;;;16.04;100.00;101626.56;5063597;28;20098;-76
2022/07/11 06:26:11;;;;;;;7.57;3.60;;;;;;;16.27;100.00;101624.53;5064630;28;20417;-77
2022/07/11 06:28:38;;;;;;;5.22;3.65;;;;;;;16.40;100.00;101618.38;5034811;28;20036;-79
2022/07/11 06:34:26;;;;;;;5.32;3.00;;;;;;;16.61;100.00;101590.41;5025484;28;20075;-77
2022/07/11 06:36:52;;;;;;;5.97;3.38;;;;;;;16.68;100.00;101626.59;5059469;28;20452;-77
2022/07/11 06:39:17;;;;;;;5.10;3.40;;;;;;;16.54;100.00;101613.09;5047838;28;20474;-74
2022/07/11 06:41:43;;;;;;;5.20;3.30;;;;;;;16.62;100.00;101611.09;5063540;28;20040;-74
2022/07/11 06:44:09;;;;;;;4.45;3.15;;;;;;;16.66;100.00;101622.41;5072877;28;20028;-76
2022/07/11 06:47:05;;;;;;;4.85;2.92;;;;;;;16.71;100.00;101612.63;5055760;28;20044;-77
2022/07/11 06:49:31;;;;;;;7.68;3.80;;;;;;;16.90;100.00;101613.03;5032965;28;20037;-76
2022/07/11 06:51:57;;;;;;;4.45;3.25;;;;;;;17.01;100.00;101617.91;5058277;28;20021;-76
2022/07/11 06:54:22;;;;;;;5.00;3.65;;;;;;;17.21;100.00;101617.25;5068148;28;20194;-75
2022/07/11 06:56:48;;;;;;;4.90;2.88;;;;;;;17.33;98.96;101612.91;5070435;28;20486;-75
2022/07/11 06:59:14;;;;;;;5.90;3.67;;;;;;;17.44;98.28;101617.81;5042810;28;22106;-75
2022/07/11 07:01:43;;;;;;;3.78;3.10;;;;;;;18.09;95.73;101621.03;5057344;28;20123;-76
2022/07/11 07:04:11;;;;;;;5.07;3.30;;;;;;;18.72;92.82;101623.47;5068559;28;20039;-75
2022/07/11 07:06:37;;;;;;;5.28;3.10;;;;;;;19.42;88.92;101623.84;5033846;28;20044;-76
2022/07/11 07:09:03;;;;;;;6.90;4.43;;;;;;;20.49;84.84;101623.41;5059239;28;20033;-78
2022/07/11 07:11:28;;;;;;;3.40;2.80;;;;;;;21.20;80.01;101614.84;5043718;28;20699;-78
2022/07/11 07:13:54;;;;;;;5.38;2.97;;;;;;;22.34;76.73;101619.84;5064393;28;20029;-76
2022/07/11 07:16:23;;;;;;;4.25;2.90;;;;;;;23.40;71.79;101614.50;5047040;28;20109;-78
2022/07/11 07:18:50;;;;;;;4.78;2.90;;;;;;;23.97;67.42;101617.34;5063019;28;20028;-76
2022/07/11 07:21:16;;;;;;;4.15;2.60;;;;;;;24.54;65.42;101606.38;5037122;28;20036;-76
2022/07/11 07:23:46;;;;;;;3.35;2.10;;;;;;;25.18;58.80;101621.72;5051558;28;20037;-76
2022/07/11 07:26:11;;;;;;;2.85;2.50;;;;;;;25.35;58.74;101627.16;5062303;28;20507;-74
2022/07/11 07:28:38;;;;;;;2.63;2.42;;;;;;;24.99;57.96;101629.38;5067942;28;20075;-76
2022/07/11 07:31:04;;;;;;;3.95;2.50;;;;;;;24.75;59.53;101624.03;5064506;28;20036;-76
2022/07/11 07:33:30;;;;;;;4.90;2.60;;;;;;;24.94;60.53;101619.13;5069629;28;20021;-79
2022/07/11 07:35:56;;;;;;;4.90;2.60;;;;;;;24.87;59.32;101623.13;5044641;28;20029;-76
2022/07/11 07:38:21;;;;;;;4.43;2.70;;;;;;;24.97;59.00;101624.09;5051797;28;20025;-74
2022/07/11 07:40:47;;;;;;;6.15;2.53;;;;;;;25.40;58.51;101619.84;5032941;28;20469;-75
2022/07/11 07:43:13;;;;;;;3.55;2.15;;;;;;;25.69;55.53;101625.16;5048547;28;20056;-76
2022/07/11 07:45:38;;;;;;;3.78;2.20;;;;;;;25.33;54.83;101626.63;5038928;28;20493;-78
2022/07/11 07:48:04;;;;;;;4.53;2.53;;;;;;;25.07;55.43;101628.13;5048515;28;20504;-74
2022/07/11 07:50:30;;;;;;;2.97;2.28;;;;;;;25.19;56.78;101624.22;5045955;28;20031;-75
2022/07/11 07:52:56;;;;;;;4.78;2.50;;;;;;;25.55;56.53;101621.13;5025157;28;20033;-81
2022/07/11 07:55:22;;;;;;;5.00;3.15;;;;;;;26.28;52.91;101622.56;5069107;28;20477;-77
2022/07/11 07:57:47;;;;;;;3.67;3.00;;;;;;;26.53;50.82;101622.00;5065350;28;20387;-74
2022/07/11 08:03:05;;;;;;;3.90;2.45;;;;;;;25.73;52.00;101607.03;5062414;28;20048;-76
2022/07/11 08:05:31;;;;;;;5.90;4.85;;;;;;;25.25;52.51;101616.88;5060182;28;20506;-77
2022/07/11 08:07:57;;;;;;;4.05;3.53;;;;;;;24.72;53.10;101608.03;5071053;28;20024;-76
2022/07/11 08:10:22;;;;;;;3.92;2.30;;;;;;;23.99;54.07;101608.88;5053021;28;20031;-76
2022/07/11 08:12:48;;;;;;;4.45;2.40;;;;;;;23.73;54.35;101596.53;5029364;28;21842;-77
2022/07/11 08:15:14;;;;;;;3.53;2.85;;;;;;;23.90;54.28;101597.47;5055438;28;20071;-78
2022/07/11 08:17:42;;;;;;;5.38;2.33;;;;;;;23.99;53.16;101586.91;5060873;28;20084;-76
2022/07/11 08:20:08;;;;;;;4.95;4.00;;;;;;;24.23;52.81;101571.13;5059778;28;20028;-78
2022/07/11 08:22:40;;;;;;;4.95;2.60;;;;;;;25.09;49.73;101587.44;5041958;28;20037;-75
2022/07/11 08:25:10;;;;;;;4.57;2.60;;;;;;;27.62;44.92;101588.50;5052010;28;20043;-76
2022/07/11 08:27:39;;;;;;;4.80;2.08;;;;;;;29.61;38.67;101562.78;5030224;28;20032;-77
2022/07/11 08:30:07;;;;;;;3.08;2.22;;;;;;;29.47;38.25;101561.75;5069808;28;20524;-77
2022/07/11 08:32:40;;;;;;;2.97;2.05;;;;;;;27.39;41.07;101560.25;5058504;28;20033;-78
2022/07/11 08:35:11;;;;;;;3.67;2.85;;;;;;;27.01;42.80;101571.59;5044416;28;20075;-77
2022/07/11 08:37:39;;;;;;;5.15;2.92;;;;;;;27.69;40.99;101560.66;5047343;28;20059;-76
2022/07/11 08:40:05;;;;;;;4.30;2.60;;;;;;;28.03;40.61;101564.63;5060445;28;20469;-79
2022/07/11 08:42:41;;;;;;;3.38;2.50;;;;;;;28.40;39.91;101555.28;5051167;28;20059;-80
2022/07/11 08:45:10;;;;;;;2.72;2.30;;;;;;;26.92;42.52;101549.19;5049354;28;20036;-81
2022/07/11 08:47:35;;;;;;;4.60;2.10;;;;;;;25.82;44.54;101539.38;5071256;28;20036;-84
2022/07/11 08:50:05;;;;;;;3.60;2.40;;;;;;;24.58;48.18;101537.94;5053128;28;20032;-82
2022/07/11 08:52:34;;;;;;;4.47;2.58;;;;;;;23.84;50.36;101540.75;5034087;28;20132;-82
2022/07/11 08:55:00;;;;;;;4.35;2.30;;;;;;;23.13;52.08;101535.44;5027769;28;20036;-83
2022/07/11 08:57:25;;;;;;;3.78;2.30;;;;;;;22.63;53.99;101538.63;5061362;28;20034;-83
2022/07/11 08:59:57;;;;;;;2.97;2.38;;;;;;;22.21;55.82;101514.03;5037444;28;20082;-83
2022/07/11 09:02:23;;;;;;;3.97;2.30;;;;;;;22.13;57.17;101525.28;5031442;28;20068;-86
2022/07/11 09:04:49;;;;;;;4.35;2.40;;;;;;;22.01;56.87;101516.19;5033338;28;20288;-84
2022/07/11 09:07:14;;;;;;;6.90;2.58;;;;;;;21.94;57.38;101522.63;5061142;28;20097;-83
2022/07/11 09:09:40;;;;;;;5.60;2.75;;;;;;;21.97;58.48;101509.53;5035769;28;20062;-82
2022/07/11 09:12:15;;;;;;;3.25;2.95;;;;;;;22.11;58.59;101511.00;5057341;28;20036;-80
2022/07/11 09:14:46;;;;;;;4.03;2.50;;;;;;;22.11;57.66;101495.38;5058294;28;20058;-82
2022/07/11 09:17:12;;;;;;;4.05;2.55;;;;;;;22.19;58.15;101499.72;5059462;28;20028;-82
2022/07/11 09:19:41;;;;;;;4.43;2.47;;;;;;;22.04;57.69;101485.59;5035242;28;20441;-81
2022/07/11 09:29:22;;;;;;;3.72;2.58;;;;;;;21.68;60.08;101492.88;5066902;28;20046;-82
2022/07/11 09:31:48;;;;;;;5.07;2.72;;;;;;;21.65;60.56;101487.88;5058407;28;20058;-83
2022/07/11 09:37:55;;;;;;;4.82;3.90;;;;;;;21.91;61.48;101483.91;5046425;28;20061;-83
2022/07/11 09:40:22;;;;;;;6.70;5.18;;;;;;;22.05;59.83;101477.16;5025774;28;20048;-84
2022/07/11 09:42:55;;;;;;;11.70;6.53;;;;;;;22.03;60.16;101460.13;5041138;28;20623;-83
2022/07/11 09:45:22;;;;;;;10.65;8.05;;;;;;;22.34;60.52;101477.38;5045558;28;20537;-82
2022/07/11 09:47:57;;;;;;;6.88;5.30;;;;;;;22.82;59.57;101490.84;5012299;28;20039;-83
2022/07/11 09:50:30;;;;;;;7.85;3.85;;;;;;;23.37;56.89;101505.22;5014614;28;20132;-85
2022/07/11 09:53:02;;;;;;;;;;;;;;;24.07;55.79;101504.91;5026920;28;20031;-81
2022/07/11 09:55:34;;;;;;;;;;;;;;;25.68;50.74;101505.06;5044363;28;19924;-82
2022/07/11 09:58:13;;;;;;;6.57;5.00;;;;;;;27.35;45.78;101495.59;5008745;28;20397;-81
2022/07/11 10:00:40;;;;;;;6.95;2.88;;;;;;;27.28;44.50;101499.72;5025519;28;20592;-83
2022/07/11 10:03:07;;;;;;;6.50;3.55;;;;;;;27.19;45.17;101497.47;5042517;28;20051;-82
2022/07/11 10:05:33;;;;;;;3.15;2.85;;;;;;;26.81;45.55;101489.53;5009474;28;22311;-82
2022/07/11 10:08:00;;;;;;;3.63;3.03;;;;;;;26.32;47.08;101494.13;5026810;28;20485;-83
2022/07/11 10:10:27;;;;;;;5.13;3.38;;;;;;;26.01;48.01;101487.53;5022985;28;20133;-82
2022/07/11 10:12:54;;;;;;;4.25;2.67;;;;;;;26.03;47.73;101503.78;5040467;28;20036;-82
2022/07/11 10:15:24;;;;;;;3.72;2.60;;;;;;;25.98;48.01;101498.22;5039309;28;20043;-85
2022/07/11 10:18:02;;;;;;;3.38;2.42;;;;;;;26.14;46.51;101502.78;5002172;28;20154;-82
2022/07/11 10:20:32;;;;;;;4.88;2.30;;;;;;;26.17;46.11;101493.16;5035305;28;20033;-82
2022/07/11 10:23:19;;;;;;;3.28;2.47;;;;;;;25.93;46.48;101490.75;5025018;28;20032;-84
2022/07/11 10:25:58;;;;;;;4.38;2.38;;;;;;;26.08;46.60;101493.63;5042689;28;20086;-82
2022/07/11 10:28:30;;;;;;;4.65;2.92;;;;;;;26.93;46.01;101493.72;5030349;28;20036;-81
2022/07/11 10:30:59;;;;;;;3.53;2.50;;;;;;;27.81;43.80;101494.94;5052804;28;20043;-84
2022/07/11 10:33:27;;;;;;;5.38;2.58;;;;;;;29.00;40.36;101491.81;5016516;28;20897;-81
2022/07/11 10:35:53;;;;;;;5.38;3.58;;;;;;;30.56;37.05;101477.56;5026860;28;20029;-83
2022/07/11 10:38:20;;;;;;;3.80;2.25;;;;;;;30.29;37.41;101481.69;5022281;28;20465;-83
2022/07/11 10:44:47;;;;;;;3.03;2.30;;;;;;;30.52;35.42;101488.44;5043073;28;20127;-83
2022/07/11 10:47:41;;;;;;;3.00;2.30;;;;;;;30.99;34.76;101492.41;5009438;28;20047;-83
2022/07/11 11:11:05;;;;;;;2.70;2.05;;;;;;;28.10;38.04;101452.94;5021108;28;20561;-81
2022/07/11 11:13:31;;;;;;;3.53;1.70;;;;;;;27.76;37.32;101450.66;5005066;28;20033;-85
2022/07/11 11:15:58;;;;;;;2.90;2.25;;;;;;;27.22;38.07;101471.25;4992545;28;20116;-82
2022/07/11 11:18:24;;;;;;;1.92;1.48;;;;;;;26.91;39.31;101461.97;5030871;28;20052;-83
2022/07/11 11:21:02;;;;;;;5.60;2.45;;;;;;;26.65;39.96;101464.63;5028493;28;20041;-84
2022/07/11 11:23:32;;;;;;;6.95;2.70;;;;;;;26.54;39.59;101468.38;5023707;28;20033;-84
2022/07/11 11:26:04;;;;;;;2.08;1.75;;;;;;;26.40;40.31;101458.88;4991302;28;20049;-83
2022/07/11 11:28:30;;;;;;;3.67;2.60;;;;;;;26.21;41.35;101442.75;5002853;28;20021;-84
2022/07/11 11:30:57;;;;;;;6.78;2.80;;;;;;;26.31;41.60;101442.84;4988865;28;20379;-82
2022/07/11 11:33:28;;;;;;;7.93;2.50;;;;;;;26.59;42.27;101421.53;5014579;28;20032;-85
2022/07/11 11:36:03;;;;;;;5.68;2.30;;;;;;;27.40;39.42;101387.91;5011866;28;20467;-83
2022/07/11 11:38:33;;;;;;;10.38;3.15;;;;;;;28.98;36.39;101407.38;5015664;28;20052;-83
2022/07/11 11:40:59;;;;;;;2.70;2.20;;;;;;;30.63;33.93;101419.75;5020294;28;20112;-85
2022/07/11 11:43:25;;;;;;;4.07;2.45;;;;;;;31.91;31.63;101418.00;5012938;28;20470;-83
2022/07/11 11:45:52;;;;;;;2.88;2.17;;;;;;;32.40;30.46;101400.72;5015936;28;20025;-78
2022/07/11 11:48:34;;;;;;;7.45;2.80;;;;;;;31.08;32.58;101406.47;5021645;28;20034;-75
2022/07/11 11:51:18;;;;;;;4.45;2.47;;;;;;;31.00;32.43;101419.06;4999358;28;20034;-75
2022/07/11 11:53:46;;;;;;;3.85;2.78;;;;;;;30.14;34.78;101405.00;5034422;28;20570;-74
2022/07/11 11:56:18;;;;;;;6.05;2.25;;;;;;;29.52;36.02;101406.56;5032651;28;20095;-75
2022/07/11 11:58:45;;;;;;;4.75;2.70;;;;;;;29.13;36.74;101419.25;5033959;28;20017;-73
2022/07/11 12:01:12;;;;;;;5.13;2.78;;;;;;;29.24;36.54;101408.97;5029067;28;21702;-73
2022/07/11 12:03:55;;;;;;;5.00;2.70;;;;;;;30.27;34.87;101402.66;5037897;28;20033;-75
2022/07/11 12:06:26;;;;;;;4.50;2.78;;;;;;;31.26;32.58;101388.97;5033714;28;20462;-74
2022/07/11 12:09:01;;;;;;;3.55;3.05;;;;;;;31.19;32.72;101410.75;5009306;28;20032;-76
2022/07/11 12:11:27;;;;;;;4.97;3.00;;;;;;;31.03;32.96;101409.31;5033431;28;20056;-74
2022/07/11 12:14:01;;;;;;;6.63;3.00;;;;;;;32.51;30.40;101400.56;5002283;28;20432;-73
2022/07/11 12:16:39;;;;;;;3.15;2.63;;;;;;;33.18;29.55;101402.78;5035337;28;20813;-74
2022/07/11 12:19:07;;;;;;;4.00;3.15;;;;;;;34.45;27.66;101425.91;5027244;28;20040;-79
2022/07/11 12:21:34;;;;;;;6.75;3.60;;;;;;;35.02;26.72;101423.16;5025924;28;20037;-75
2022/07/11 12:24:01;;;;;;;4.40;3.17;;;;;;;35.36;26.74;101419.63;5018140;28;20021;-74
2022/07/11 12:26:29;;;;;;;6.65;3.45;;;;;;;34.43;27.70;101423.44;5028611;28;20033;-75
2022/07/11 12:29:22;;;;;;;4.22;2.72;;;;;;;34.56;28.26;101430.03;5035057;28;20037;-75
2022/07/11 12:31:50;;;;;;;4.05;2.50;;;;;;;34.52;27.50;101417.88;4993856;28;20033;-76
2022/07/11 12:34:20;;;;;;;4.47;3.03;;;;;;;33.08;29.38;101434.50;5018426;28;20090;-75
2022/07/11 12:36:47;;;;;;;6.57;3.53;;;;;;;32.08;31.27;101425.84;5006600;28;20116;-80
2022/07/11 12:39:25;;;;;;;5.90;3.38;;;;;;;31.29;32.83;101420.88;5038146;28;20029;-75
2022/07/11 12:41:52;;;;;;;4.07;3.67;;;;;;;30.67;34.67;101427.22;5030926;28;20037;-75
2022/07/11 12:47:24;;;;;;;4.28;3.53;;;;;;;30.08;35.62;101420.00;5028903;28;20390;-75
2022/07/11 12:49:51;;;;;;;8.80;4.15;;;;;;;29.91;35.76;101416.84;5018646;28;20037;-75
2022/07/11 12:52:17;;;;;;;4.97;3.78;;;;;;;29.72;37.07;101420.31;5030736;28;20064;-74
2022/07/11 12:54:43;;;;;;;5.05;4.20;;;;;;;30.45;35.64;101421.34;5026289;28;20087;-75
2022/07/11 12:57:12;;;;;;;5.78;4.00;;;;;;;33.98;30.52;101406.75;5019751;28;20056;-75
2022/07/11 12:59:41;;;;;;;5.88;3.92;;;;;;;35.88;28.69;101388.84;4995085;28;20094;-74
2022/07/11 13:02:11;;;;;;;6.20;3.58;;;;;;;37.34;25.81;101382.03;5011256;28;20033;-76
2022/07/11 13:04:48;;;;;;;7.18;3.80;;;;;;;35.89;27.48;101373.69;5029832;28;20406;-77
2022/07/11 13:10:05;;;;;;;6.93;3.90;;;;;;;33.95;28.66;101373.88;5036128;28;20658;-80
2022/07/11 13:12:31;;;;;;;5.45;3.63;;;;;;;32.69;31.20;101371.78;5029107;28;20098;-78
2022/07/11 13:15:08;;;;;;;4.60;3.03;;;;;;;31.48;32.17;101374.50;5029229;28;20198;-75
2022/07/11 13:17:36;;;;;;;5.38;3.40;;;;;;;31.01;32.97;101379.03;5009730;28;20037;-78
2022/07/11 13:20:01;;;;;;;9.35;3.55;;;;;;;32.44;31.25;101384.22;5030724;28;20231;-79
2022/07/11 13:22:27;;;;;;;12.18;3.50;;;;;;;33.44;29.77;101366.78;4997237;28;20037;-79
2022/07/11 13:24:53;;;;;;;5.07;2.88;;;;;;;33.83;29.58;101379.25;5015786;28;20386;-80
2022/07/11 13:27:19;;;;;;;4.75;3.60;;;;;;;33.80;29.77;101375.13;4996276;28;20044;-80
2022/07/11 13:29:45;;;;;;;3.60;2.88;;;;;;;33.41;30.28;101378.56;5013014;28;20041;-79
2022/07/11 13:32:10;;;;;;;4.25;3.40;;;;;;;33.87;30.06;101385.81;5031279;28;20037;-80
2022/07/11 13:34:36;;;;;;;4.70;2.92;;;;;;;34.34;28.59;101375.91;5011521;28;20045;-78
2022/07/11 13:37:03;;;;;;;5.95;3.53;;;;;;;33.99;29.76;101386.06;4995937;28;20296;-81
2022/07/11 13:39:30;;;;;;;5.38;3.00;;;;;;;33.52;29.70;101365.22;5011782;28;20037;-77
2022/07/11 13:41:56;;;;;;;3.88;2.63;;;;;;;33.22;29.45;101365.63;4989729;28;20072;-77
2022/07/11 13:44:22;;;;;;;5.22;2.95;;;;;;;32.52;30.93;101354.88;5031088;28;20112;-78
2022/07/11 13:46:48;;;;;;;4.55;3.00;;;;;;;32.16;31.10;101361.97;4999842;28;20124;-75
2022/07/11 13:49:14;;;;;;;4.97;3.10;;;;;;;31.73;31.90;101358.53;4998976;28;20032;-82
2022/07/11 13:51:40;;;;;;;5.82;3.30;;;;;;;31.04;32.36;101361.81;5010065;28;20471;-85
2022/07/11 13:54:06;;;;;;;6.47;3.55;;;;;;;31.02;33.00;101366.00;5006442;28;20040;-84
2022/07/11 13:56:32;;;;;;;6.47;3.33;;;;;;;31.31;33.46;101374.19;4996993;28;20037;-84
2022/07/11 13:58:57;;;;;;;5.43;3.70;;;;;;;31.52;32.83;101370.00;4992751;28;20030;-85
2022/07/11 14:01:24;;;;;;;5.75;3.53;;;;;;;32.10;32.75;101359.56;5016537;28;20104;-84
2022/07/11 14:03:49;;;;;;;4.85;3.33;;;;;;;32.50;31.32;101368.31;5014528;28;20026;-84
2022/07/11 14:06:15;;;;;;;3.63;2.58;;;;;;;32.82;29.69;101348.69;4998610;28;20547;-83
2022/07/11 14:08:41;;;;;;;6.50;3.60;;;;;;;32.52;29.90;101358.47;5017667;28;20451;-83
2022/07/11 14:11:07;;;;;;;5.32;3.78;;;;;;;32.81;29.39;101348.97;5029305;28;20033;-84
2022/07/11 14:13:34;;;;;;;5.82;3.45;;;;;;;32.93;29.60;101354.84;5005031;28;20109;-83
2022/07/11 14:16:00;;;;;;;9.25;3.95;;;;;;;32.06;30.17;101330.72;5031980;28;20029;-81
2022/07/11 14:18:26;;;;;;;14.70;3.70;;;;;;;31.85;31.56;101360.84;5035709;28;20030;-82
2022/07/11 14:20:51;;;;;;;5.80;3.75;;;;;;;32.14;30.53;101347.53;4999027;28;20563;-82